createdAt,value
2022-12-24T00:01:37.825Z,10.84
2022-12-24T00:04:06.913Z,10.82
2022-12-24T00:06:35.727Z,10.80
2022-12-24T00:09:04.906Z,10.78
2022-12-24T00:11:33.663Z,10.80
2022-12-24T00:14:03.683Z,10.84
2022-12-24T00:16:32.387Z,10.82
2022-12-24T00:19:01.170Z,10.81
2022-12-24T00:21:29.730Z,10.80
2022-12-24T00:23:58.377Z,10.82
2022-12-24T00:26:27.178Z,10.73
2022-12-24T00:28:55.841Z,10.72
2022-12-24T00:31:25.817Z,10.64
2022-12-24T00:33:54.820Z,10.64
2022-12-24T00:36:23.829Z,10.69
2022-12-24T00:38:52.511Z,10.65
2022-12-24T00:41:29.034Z,10.64
2022-12-24T00:43:59.538Z,10.60
2022-12-24T00:46:31.184Z,10.56
2022-12-24T00:48:59.908Z,10.53
2022-12-24T00:51:28.577Z,10.50
2022-12-24T00:53:57.766Z,10.49
2022-12-24T00:56:26.556Z,10.49
2022-12-24T00:58:55.623Z,10.46
2022-12-24T01:01:24.978Z,10.51
2022-12-24T01:04:16.222Z,10.50
2022-12-24T01:06:44.044Z,10.48
2022-12-24T01:09:12.739Z,10.50
2022-12-24T01:11:41.415Z,10.52
2022-12-24T01:14:10.237Z,10.54
2022-12-24T01:16:38.865Z,10.51
2022-12-24T01:19:09.183Z,10.49
2022-12-24T01:21:38.190Z,10.43
2022-12-24T01:24:07.409Z,10.44
2022-12-24T01:26:36.019Z,10.43
2022-12-24T01:29:04.751Z,10.44
2022-12-24T01:31:33.478Z,10.44
2022-12-24T01:34:02.453Z,10.45
2022-12-24T01:36:32.553Z,10.43
2022-12-24T01:39:01.452Z,10.44
2022-12-24T01:41:50.229Z,10.59
2022-12-24T01:44:21.057Z,10.49
2022-12-24T01:46:51.144Z,10.50
2022-12-24T01:49:19.992Z,10.41
2022-12-24T01:51:52.211Z,10.26
2022-12-24T01:54:23.638Z,10.26
2022-12-24T01:56:54.623Z,10.13
2022-12-24T01:59:23.391Z,10.03
2022-12-24T02:01:53.150Z,10.02
2022-12-24T02:04:30.529Z,10.02
2022-12-24T02:07:00.588Z,10.15
2022-12-24T02:09:29.565Z,10.05
2022-12-24T02:11:58.891Z,9.97
2022-12-24T02:14:28.234Z,9.98
2022-12-24T02:17:01.848Z,9.93
2022-12-24T02:19:50.038Z,9.91
2022-12-24T02:22:23.728Z,9.87
2022-12-24T02:25:11.115Z,9.78
2022-12-24T02:27:51.069Z,9.85
2022-12-24T02:30:22.861Z,9.74
2022-12-24T02:33:10.015Z,9.79
2022-12-24T02:35:45.247Z,9.80
2022-12-24T02:38:18.962Z,9.83
2022-12-24T02:40:50.829Z,9.88
2022-12-24T02:43:23.278Z,9.93
2022-12-24T02:45:59.538Z,9.95
2022-12-24T02:48:29.091Z,9.92
2022-12-24T02:51:06.201Z,9.87
2022-12-24T02:53:35.689Z,9.77
2022-12-24T02:56:34.597Z,9.78
2022-12-24T02:59:32.694Z,9.68
2022-12-24T03:02:10.810Z,9.64
2022-12-24T03:04:47.807Z,9.63
2022-12-24T03:07:21.757Z,9.65
2022-12-24T03:10:04.827Z,9.62
2022-12-24T03:12:39.004Z,9.64
2022-12-24T03:15:09.975Z,9.62
2022-12-24T03:17:41.755Z,9.59
2022-12-24T03:20:12.542Z,9.57
2022-12-24T03:22:41.338Z,9.55
2022-12-24T03:25:10.419Z,9.54
2022-12-24T03:27:40.559Z,9.52
2022-12-24T03:30:13.330Z,9.48
2022-12-24T03:32:43.715Z,9.45
2022-12-24T03:35:13.075Z,9.42
2022-12-24T03:37:41.941Z,9.39
2022-12-24T03:40:11.756Z,9.39
2022-12-24T03:42:40.352Z,9.36
2022-12-24T03:45:10.215Z,9.37
2022-12-24T03:47:38.876Z,9.39
2022-12-24T03:50:09.909Z,9.39
2022-12-24T03:52:38.653Z,9.36
2022-12-24T03:55:07.623Z,9.39
2022-12-24T03:57:36.401Z,9.36
2022-12-24T04:00:06.324Z,9.35
2022-12-24T04:02:40.911Z,9.37
2022-12-24T04:05:15.852Z,9.34
2022-12-24T04:07:44.721Z,9.34
2022-12-24T04:10:14.047Z,9.34
2022-12-24T04:12:42.778Z,9.29
2022-12-24T04:15:12.263Z,9.28
2022-12-24T04:17:40.848Z,9.23
2022-12-24T04:20:12.438Z,9.25
2022-12-24T04:22:42.202Z,9.23
2022-12-24T04:25:11.395Z,9.25
2022-12-24T04:27:39.970Z,9.25
2022-12-24T04:30:09.975Z,9.23
2022-12-24T04:32:38.578Z,9.24
2022-12-24T04:35:07.886Z,9.31
2022-12-24T04:37:37.907Z,9.35
2022-12-24T04:40:07.720Z,9.43
2022-12-24T04:42:36.323Z,9.40
2022-12-24T04:45:05.324Z,9.38
2022-12-24T04:47:33.979Z,9.36
2022-12-24T04:50:02.603Z,9.38
2022-12-24T04:52:31.273Z,9.33
2022-12-24T04:55:01.157Z,9.35
2022-12-24T04:57:32.008Z,9.34
2022-12-24T05:00:00.705Z,9.31
2022-12-24T05:02:29.451Z,9.37
2022-12-24T05:04:58.245Z,9.36
2022-12-24T05:07:26.889Z,9.35
2022-12-24T05:09:55.624Z,9.37
2022-12-24T05:12:26.331Z,9.39
2022-12-24T05:14:55.109Z,9.37
2022-12-24T05:17:24.061Z,9.40
2022-12-24T05:19:52.846Z,9.39
2022-12-24T05:22:39.254Z,9.32
2022-12-24T05:25:25.950Z,9.23
2022-12-24T05:27:55.919Z,9.22
2022-12-24T05:30:24.537Z,9.20
2022-12-24T05:32:53.256Z,9.13
2022-12-24T05:35:22.027Z,9.07
2022-12-24T05:37:50.589Z,9.06
2022-12-24T05:40:19.404Z,9.00
2022-12-24T05:42:47.989Z,8.96
2022-12-24T05:45:18.203Z,8.93
2022-12-24T05:47:46.889Z,8.87
2022-12-24T05:50:15.480Z,8.88
2022-12-24T05:52:44.319Z,8.86
2022-12-24T05:55:12.971Z,8.81
2022-12-24T05:57:42.096Z,8.82
2022-12-24T06:00:11.663Z,8.77
2022-12-24T06:02:44.646Z,8.75
2022-12-24T06:05:13.364Z,8.79
2022-12-24T06:07:42.149Z,8.75
2022-12-24T06:10:11.778Z,8.77
2022-12-24T06:12:40.501Z,8.76
2022-12-24T06:15:10.349Z,8.77
2022-12-24T06:17:38.980Z,8.78
2022-12-24T06:20:10.507Z,8.77
2022-12-24T06:22:39.556Z,8.79
2022-12-24T06:25:08.803Z,8.79
2022-12-24T06:27:37.454Z,8.78
2022-12-24T06:30:07.739Z,8.77
2022-12-24T06:32:36.379Z,8.82
2022-12-24T06:35:05.697Z,8.81
2022-12-24T06:37:35.736Z,8.83
2022-12-24T06:40:04.586Z,8.81
2022-12-24T06:42:33.260Z,8.81
2022-12-24T06:45:07.904Z,8.85
2022-12-24T06:47:37.523Z,8.80
2022-12-24T06:50:07.266Z,8.79
2022-12-24T06:52:38.069Z,8.76
2022-12-24T06:55:07.473Z,8.73
2022-12-24T06:57:36.071Z,8.72
2022-12-24T07:00:05.408Z,8.75
2022-12-24T07:02:34.419Z,8.74
2022-12-24T07:05:03.222Z,8.72
2022-12-24T07:07:31.820Z,8.72
2022-12-24T07:10:01.765Z,8.70
2022-12-24T07:12:30.517Z,8.74
2022-12-24T07:14:59.086Z,8.72
2022-12-24T07:17:28.032Z,8.70
2022-12-24T07:19:56.885Z,8.75
2022-12-24T07:22:25.583Z,8.79
2022-12-24T07:24:54.333Z,8.84
2022-12-24T07:27:24.407Z,8.81
2022-12-24T07:29:53.030Z,8.85
2022-12-24T07:32:21.845Z,8.79
2022-12-24T07:34:50.507Z,8.82
2022-12-24T07:37:19.070Z,8.80
2022-12-24T07:39:47.721Z,8.74
2022-12-24T07:42:16.329Z,8.75
2022-12-24T07:44:46.404Z,8.73
2022-12-24T07:47:15.074Z,8.72
2022-12-24T07:49:43.723Z,8.72
2022-12-24T07:52:13.866Z,8.71
2022-12-24T07:54:42.518Z,8.69
2022-12-24T07:57:11.493Z,8.68
2022-12-24T07:59:41.212Z,8.67
2022-12-24T08:02:18.209Z,8.65
2022-12-24T08:04:47.203Z,8.65
2022-12-24T08:07:18.681Z,8.64
2022-12-24T08:09:47.273Z,8.65
2022-12-24T08:12:15.911Z,8.66
2022-12-24T08:14:47.375Z,8.66
2022-12-24T08:17:17.360Z,8.67
2022-12-24T08:19:48.585Z,8.68
2022-12-24T08:22:24.508Z,8.71
2022-12-24T08:24:53.215Z,8.72
2022-12-24T08:27:21.853Z,8.74
2022-12-24T08:29:53.312Z,8.69
2022-12-24T08:32:25.364Z,8.68
2022-12-24T08:34:59.587Z,8.70
2022-12-24T08:37:34.091Z,8.73
2022-12-24T08:40:07.705Z,8.72
2022-12-24T08:42:39.141Z,8.75
2022-12-24T08:45:21.289Z,8.78
2022-12-24T08:47:54.267Z,8.74
2022-12-24T08:50:23.076Z,8.76
2022-12-24T08:53:09.292Z,8.75
2022-12-24T08:55:48.997Z,8.76
2022-12-24T08:58:36.090Z,8.76
2022-12-24T09:01:19.554Z,8.78
2022-12-24T09:03:57.122Z,8.76
2022-12-24T09:06:42.763Z,8.78
2022-12-24T09:09:12.999Z,8.79
2022-12-24T09:11:53.687Z,8.75
2022-12-24T09:14:33.742Z,8.81
2022-12-24T09:17:09.553Z,8.81
2022-12-24T09:19:56.421Z,8.84
2022-12-24T09:22:28.596Z,8.88
2022-12-24T09:25:07.226Z,8.90
2022-12-24T09:27:47.401Z,8.91
2022-12-24T09:30:23.640Z,8.94
2022-12-24T09:33:02.572Z,8.99
2022-12-24T09:35:38.835Z,9.02
2022-12-24T09:38:18.665Z,9.05
2022-12-24T09:40:50.136Z,9.04
2022-12-24T09:43:25.359Z,9.13
2022-12-24T09:46:14.582Z,9.15
2022-12-24T09:48:55.802Z,9.17
2022-12-24T09:51:31.455Z,9.18
2022-12-24T09:54:05.474Z,9.24
2022-12-24T09:56:39.139Z,9.29
2022-12-24T09:59:14.843Z,9.34
2022-12-24T10:01:43.835Z,9.37
2022-12-24T10:04:15.928Z,9.46
2022-12-24T10:06:51.699Z,9.53
2022-12-24T10:09:28.177Z,9.62
2022-12-24T10:12:05.152Z,9.65
2022-12-24T10:14:50.159Z,9.65
2022-12-24T10:17:37.002Z,9.66
2022-12-24T10:20:28.684Z,9.74
2022-12-24T10:23:03.514Z,9.79
2022-12-24T10:25:35.376Z,9.83
2022-12-24T10:28:07.137Z,9.86
2022-12-24T10:30:38.676Z,9.88
2022-12-24T10:33:16.482Z,9.85
2022-12-24T10:35:49.119Z,9.85
2022-12-24T10:38:19.183Z,9.84
2022-12-24T10:40:49.893Z,9.83
2022-12-24T10:43:20.505Z,9.85
2022-12-24T10:45:50.898Z,9.89
2022-12-24T10:48:24.288Z,9.90
2022-12-24T10:50:59.286Z,9.94
2022-12-24T10:53:32.489Z,9.95
2022-12-24T10:56:06.772Z,9.95
2022-12-24T10:58:36.014Z,9.91
2022-12-24T11:01:05.490Z,9.89
2022-12-24T11:03:36.004Z,9.90
2022-12-24T11:06:11.097Z,9.89
2022-12-24T11:08:44.100Z,9.88
2022-12-24T11:11:14.526Z,9.88
2022-12-24T11:13:45.935Z,9.85
2022-12-24T11:16:20.514Z,9.82
2022-12-24T11:18:52.163Z,9.83
2022-12-24T11:21:23.248Z,9.88
2022-12-24T11:23:56.097Z,9.86
2022-12-24T11:26:26.908Z,9.86
2022-12-24T11:29:08.084Z,9.85
2022-12-24T11:31:38.040Z,9.87
2022-12-24T11:34:22.682Z,9.88
2022-12-24T11:36:52.060Z,9.87
2022-12-24T11:39:24.014Z,9.90
2022-12-24T11:41:54.292Z,9.90
2022-12-24T11:44:27.320Z,9.92
2022-12-24T11:46:57.691Z,9.93
2022-12-24T11:49:28.138Z,9.94
2022-12-24T11:52:14.747Z,9.96
2022-12-24T11:54:51.614Z,9.96
2022-12-24T11:57:23.332Z,9.97
2022-12-24T11:59:52.339Z,10.03
2022-12-24T12:02:24.670Z,10.13
2022-12-24T12:04:57.172Z,10.13
2022-12-24T12:07:27.676Z,10.17
2022-12-24T12:10:00.727Z,10.18
2022-12-24T12:12:31.877Z,10.16
2022-12-24T12:15:03.288Z,10.13
2022-12-24T12:17:35.120Z,10.14
2022-12-24T12:20:08.766Z,10.12
2022-12-24T12:22:43.262Z,10.15
2022-12-24T12:25:21.116Z,10.13
2022-12-24T12:27:52.327Z,10.15
2022-12-24T12:30:23.261Z,10.19
2022-12-24T12:32:54.661Z,10.28
2022-12-24T12:35:32.437Z,10.30
2022-12-24T12:38:03.287Z,10.37
2022-12-24T12:40:59.095Z,10.36
2022-12-24T12:43:38.756Z,10.37
2022-12-24T12:46:15.241Z,10.36
2022-12-24T12:49:13.948Z,10.36
2022-12-24T12:51:46.914Z,10.35
2022-12-24T12:54:29.890Z,10.35
2022-12-24T12:57:04.789Z,10.35
2022-12-24T12:59:40.525Z,10.35
2022-12-24T13:02:30.946Z,10.34
2022-12-24T13:05:36.894Z,10.37
2022-12-24T13:08:19.191Z,10.44
2022-12-24T13:11:09.105Z,10.54
2022-12-24T13:13:49.979Z,10.63
2022-12-24T13:16:50.709Z,10.68
2022-12-24T13:19:37.825Z,10.71
2022-12-24T13:22:14.308Z,10.74
2022-12-24T13:24:51.731Z,10.89
2022-12-24T13:27:24.814Z,11.04
2022-12-24T13:29:57.035Z,11.11
2022-12-24T13:32:48.421Z,11.13
2022-12-24T13:35:38.840Z,11.16
2022-12-24T13:38:47.319Z,11.17
2022-12-24T13:41:41.459Z,11.24
2022-12-24T13:44:33.065Z,11.32
2022-12-24T13:47:25.327Z,11.32
2022-12-24T13:50:00.257Z,11.41
2022-12-24T13:52:31.288Z,11.37
2022-12-24T13:55:17.874Z,11.31
2022-12-24T13:57:57.345Z,11.27
2022-12-24T14:00:33.249Z,11.26
2022-12-24T14:03:06.971Z,11.24
2022-12-24T14:05:38.901Z,11.17
2022-12-24T14:08:09.778Z,11.15
2022-12-24T14:10:40.975Z,11.13
2022-12-24T14:13:54.844Z,11.09
2022-12-24T14:16:25.509Z,11.02
2022-12-24T14:19:03.216Z,11.05
2022-12-24T14:21:34.559Z,11.02
2022-12-24T14:24:05.327Z,10.96
2022-12-24T14:26:36.393Z,10.94
2022-12-24T14:29:09.338Z,10.86
2022-12-24T14:31:38.220Z,10.90
2022-12-24T14:34:14.343Z,10.86
2022-12-24T14:36:44.966Z,10.86
2022-12-24T14:39:26.370Z,10.83
2022-12-24T14:42:03.833Z,10.83
2022-12-24T14:44:39.820Z,10.79
2022-12-24T14:47:17.672Z,10.78
2022-12-24T14:50:00.579Z,10.75
2022-12-24T14:55:37.412Z,10.73
2022-12-24T14:58:29.860Z,10.73
2022-12-24T15:01:20.068Z,10.67
2022-12-24T15:04:02.091Z,10.60
2022-12-24T15:06:38.168Z,10.58
2022-12-24T15:09:13.214Z,10.55
2022-12-24T15:11:47.954Z,10.50
2022-12-24T15:14:17.395Z,10.47
2022-12-24T15:16:53.816Z,10.45
2022-12-24T15:19:25.251Z,10.45
2022-12-24T15:22:00.070Z,10.41
2022-12-24T15:24:33.360Z,10.40
2022-12-24T15:27:05.682Z,10.38
2022-12-24T15:29:39.856Z,10.38
2022-12-24T15:32:14.598Z,10.35
2022-12-24T15:34:45.257Z,10.35
2022-12-24T15:37:19.481Z,10.32
2022-12-24T15:39:55.593Z,10.34
2022-12-24T15:42:24.999Z,10.31
2022-12-24T15:45:00.261Z,10.29
2022-12-24T15:47:37.935Z,10.24
2022-12-24T15:50:11.386Z,10.20
2022-12-24T15:52:42.745Z,10.18
2022-12-24T15:55:27.422Z,10.18
2022-12-24T15:57:56.170Z,10.14
2022-12-24T16:00:27.400Z,10.15
2022-12-24T16:02:59.413Z,10.11
2022-12-24T16:05:37.378Z,10.10
2022-12-24T16:08:25.315Z,10.11
2022-12-24T16:10:56.481Z,10.07
2022-12-24T16:13:29.654Z,10.04
2022-12-24T16:16:00.232Z,10.04
2022-12-24T16:18:32.729Z,10.04
2022-12-24T16:21:02.341Z,10.07
2022-12-24T16:23:39.477Z,10.10
2022-12-24T16:26:08.096Z,10.05
2022-12-24T16:28:36.974Z,10.05
2022-12-24T16:31:06.127Z,9.99
2022-12-24T16:33:34.713Z,9.92
2022-12-24T16:36:03.447Z,9.89
2022-12-24T16:38:54.555Z,9.90
2022-12-24T16:41:23.853Z,9.88
2022-12-24T16:43:51.488Z,9.87
2022-12-24T16:46:20.525Z,9.83
2022-12-24T16:48:50.383Z,9.84
2022-12-24T16:51:18.989Z,9.82
2022-12-24T16:53:49.168Z,9.82
2022-12-24T16:56:18.845Z,9.81
2022-12-24T16:58:47.508Z,9.80
2022-12-24T17:01:16.420Z,9.78
2022-12-24T17:03:45.275Z,9.77
2022-12-24T17:06:13.928Z,9.77
2022-12-24T17:08:42.735Z,9.76
2022-12-24T17:11:12.719Z,9.74
2022-12-24T17:13:41.416Z,9.74
2022-12-24T17:16:10.036Z,9.74
2022-12-24T17:18:38.925Z,9.73
2022-12-24T17:21:07.896Z,9.70
2022-12-24T17:23:36.659Z,9.69
2022-12-24T17:26:12.556Z,9.72
2022-12-24T17:28:43.708Z,9.71
2022-12-24T17:31:13.564Z,9.73
2022-12-24T17:33:42.469Z,9.74
2022-12-24T17:36:12.128Z,9.72
2022-12-24T17:38:40.883Z,9.72
2022-12-24T17:41:11.620Z,9.72
2022-12-24T17:43:41.864Z,9.71
2022-12-24T17:46:13.125Z,9.67
2022-12-24T17:48:41.951Z,9.65
2022-12-24T17:51:12.293Z,9.63
2022-12-24T17:53:42.621Z,9.59
2022-12-24T17:56:14.160Z,9.57
2022-12-24T17:58:45.212Z,9.52
2022-12-24T18:01:15.428Z,9.52
2022-12-24T18:03:44.659Z,9.55
2022-12-24T18:06:16.194Z,9.57
2022-12-24T18:08:46.664Z,9.55
2022-12-24T18:11:16.009Z,9.54
2022-12-24T18:13:46.409Z,9.56
2022-12-24T18:16:16.579Z,9.52
2022-12-24T18:18:45.221Z,9.54
2022-12-24T18:21:14.134Z,9.52
2022-12-24T18:23:43.904Z,9.50
2022-12-24T18:26:13.162Z,9.53
2022-12-24T18:28:42.067Z,9.49
2022-12-24T18:31:15.058Z,9.52
2022-12-24T18:33:44.451Z,9.50
2022-12-24T18:36:13.694Z,9.50
2022-12-24T18:38:42.439Z,9.50
2022-12-24T18:41:12.417Z,9.49
2022-12-24T18:43:41.699Z,9.54
2022-12-24T18:46:13.358Z,9.56
2022-12-24T18:48:42.061Z,9.54
2022-12-24T18:51:11.018Z,9.52
2022-12-24T18:53:40.215Z,9.49
2022-12-24T18:56:11.856Z,9.51
2022-12-24T18:58:41.160Z,9.48
2022-12-24T19:01:16.261Z,9.45
2022-12-24T19:03:45.719Z,9.41
2022-12-24T19:06:14.480Z,9.42
2022-12-24T19:09:00.425Z,9.45
2022-12-24T19:11:31.708Z,9.43
2022-12-24T19:14:01.249Z,9.44
2022-12-24T19:16:34.798Z,9.44
2022-12-24T19:19:04.296Z,9.45
2022-12-24T19:21:33.194Z,9.44
2022-12-24T19:24:02.059Z,9.44
2022-12-24T19:26:30.728Z,9.47
2022-12-24T19:28:59.472Z,9.47
2022-12-24T19:31:28.702Z,9.45
2022-12-24T19:33:58.858Z,9.47
2022-12-24T19:36:29.395Z,9.46
2022-12-24T19:38:59.009Z,9.41
2022-12-24T19:41:29.953Z,9.44
2022-12-24T19:43:59.873Z,9.44
2022-12-24T19:46:29.935Z,9.44
2022-12-24T19:49:01.610Z,9.48
2022-12-24T19:51:31.237Z,9.43
2022-12-24T19:54:00.985Z,9.47
2022-12-24T19:56:31.641Z,9.46
2022-12-24T19:59:01.179Z,9.45
2022-12-24T20:01:31.154Z,9.42
2022-12-24T20:04:01.935Z,9.42
2022-12-24T20:06:31.949Z,9.41
2022-12-24T20:09:01.572Z,9.46
2022-12-24T20:11:30.560Z,9.45
2022-12-24T20:14:00.504Z,9.44
2022-12-24T20:16:30.287Z,9.42
2022-12-24T20:19:03.290Z,9.42
2022-12-24T20:21:32.231Z,9.41
2022-12-24T20:24:01.046Z,9.41
2022-12-24T20:26:30.426Z,9.40
2022-12-24T20:28:59.269Z,9.44
2022-12-24T20:31:29.306Z,9.38
2022-12-24T20:33:58.965Z,9.40
2022-12-24T20:36:30.367Z,9.41
2022-12-24T20:38:59.691Z,9.39
2022-12-24T20:41:29.859Z,9.39
2022-12-24T20:43:59.569Z,9.37
2022-12-24T20:46:31.149Z,9.34
2022-12-24T20:48:59.931Z,9.32
2022-12-24T20:51:30.352Z,9.34
2022-12-24T20:54:01.305Z,9.28
2022-12-24T20:56:30.785Z,9.27
2022-12-24T20:59:01.143Z,9.25
2022-12-24T21:01:30.469Z,9.18
2022-12-24T21:04:04.236Z,9.17
2022-12-24T21:06:35.265Z,9.20
2022-12-24T21:09:05.700Z,9.22
2022-12-24T21:11:52.535Z,9.15
2022-12-24T21:14:22.640Z,9.17
2022-12-24T21:16:51.988Z,9.14
2022-12-24T21:19:23.749Z,9.11
2022-12-24T21:21:55.072Z,9.10
2022-12-24T21:24:24.041Z,9.07
2022-12-24T21:26:52.717Z,9.05
2022-12-24T21:29:21.435Z,9.02
2022-12-24T21:31:50.051Z,9.07
2022-12-24T21:34:18.701Z,9.05
2022-12-24T21:36:47.433Z,9.04
2022-12-24T21:39:18.428Z,9.04
2022-12-24T21:41:47.151Z,9.05
2022-12-24T21:44:15.790Z,9.02
2022-12-24T21:46:44.588Z,9.00
2022-12-24T21:49:30.960Z,8.98
2022-12-24T21:52:00.580Z,8.97
2022-12-24T21:54:31.485Z,8.97
2022-12-24T21:57:24.638Z,8.97
2022-12-24T21:59:55.143Z,8.93
2022-12-24T22:02:27.418Z,8.92
2022-12-24T22:04:56.582Z,8.92
2022-12-24T22:07:44.363Z,8.93
2022-12-24T22:10:32.912Z,8.94
2022-12-24T22:13:06.242Z,8.95
2022-12-24T22:15:35.265Z,8.95
2022-12-24T22:18:04.174Z,8.93
2022-12-24T22:20:32.840Z,8.93
2022-12-24T22:23:01.605Z,8.82
2022-12-24T22:25:32.144Z,8.79
2022-12-24T22:28:01.256Z,8.76
2022-12-24T22:30:30.198Z,8.71
2022-12-24T22:32:59.139Z,8.71
2022-12-24T22:35:27.730Z,8.64
2022-12-24T22:38:00.196Z,8.66
2022-12-24T22:40:29.244Z,8.61
2022-12-24T22:42:59.304Z,8.63
2022-12-24T22:45:28.034Z,8.69
2022-12-24T22:47:56.630Z,8.69
2022-12-24T22:50:27.085Z,8.76
2022-12-24T22:52:55.815Z,8.75
2022-12-24T22:55:24.983Z,8.73
2022-12-24T22:57:53.674Z,8.76
2022-12-24T23:00:39.800Z,8.69
2022-12-24T23:03:09.361Z,8.66
2022-12-24T23:05:38.124Z,8.61
2022-12-24T23:08:07.466Z,8.61
2022-12-24T23:10:36.756Z,8.60
2022-12-24T23:13:23.401Z,8.53
2022-12-24T23:15:53.545Z,8.46
2022-12-24T23:18:22.282Z,8.47
2022-12-24T23:20:51.085Z,8.42
2022-12-24T23:23:19.705Z,8.39
2022-12-24T23:25:48.361Z,8.36
2022-12-24T23:28:17.105Z,8.37
2022-12-24T23:30:45.709Z,8.38
2022-12-24T23:33:15.890Z,8.34
2022-12-24T23:35:44.650Z,8.36
2022-12-24T23:38:13.239Z,8.36
2022-12-24T23:40:43.245Z,8.40
2022-12-24T23:43:11.785Z,8.35
2022-12-24T23:45:40.597Z,8.34
2022-12-24T23:48:09.204Z,8.36
2022-12-24T23:50:39.180Z,8.39
2022-12-24T23:53:07.844Z,8.39
2022-12-24T23:55:36.466Z,8.40
2022-12-24T23:58:05.791Z,8.42
